Time;durP1;ratioP1;P1;durP2;ratioP2;P2;SDS_P1;SDS_P2;PMS_P1;PMS_P2;Temp;Humidity;BMP_temperature;BMP_pressure;BME280_temperature;BME280_humidity;BME280_pressure;Samples;Min_cycle;Max_cycle;Signal;HPM_P1;HPM_P2
2022/06/21 00:01:00;;;;;;;8.40;2.60;;;;;;;12.72;86.76;99881.63;105708;1271;22532;-50
2022/06/21 00:03:33;;;;;;;7.60;2.40;;;;;;;12.70;86.63;99882.48;105823;1270;22554;-49
2022/06/21 00:06:05;;;;;;;9.20;2.30;;;;;;;12.68;86.51;99878.41;105704;1270;22515;-54
2022/06/21 00:08:37;;;;;;;6.40;1.60;;;;;;;12.65;86.26;99875.14;105769;1271;23032;-52
2022/06/21 00:11:21;;;;;;;6.30;2.20;;;;;;;12.63;86.19;99879.19;105880;1270;22535;-53
2022/06/21 00:13:53;;;;;;;6.50;1.70;;;;;;;12.61;86.15;99884.02;105590;1270;25514;-51
2022/06/21 00:16:27;;;;;;;8.40;2.10;;;;;;;12.58;85.97;99877.34;105710;1270;22999;-50
2022/06/21 00:18:58;;;;;;;5.40;2.10;;;;;;;12.55;86.14;99876.98;105696;1270;24250;-50
2022/06/21 00:21:35;;;;;;;5.80;1.90;;;;;;;12.51;86.20;99878.67;105782;1271;22528;-50
2022/06/21 00:24:08;;;;;;;5.90;1.60;;;;;;;12.47;86.12;99877.33;105550;1271;22566;-55
2022/06/21 00:26:40;;;;;;;9.40;2.00;;;;;;;12.45;86.13;99882.00;105827;1270;22610;-49
2022/06/21 00:29:12;;;;;;;5.10;1.80;;;;;;;12.42;85.98;99874.61;105904;1270;25295;-52
2022/06/21 00:31:48;;;;;;;6.60;1.80;;;;;;;12.39;85.76;99866.50;105719;1271;25504;-49
2022/06/21 00:34:21;;;;;;;5.50;1.50;;;;;;;12.38;85.81;99865.77;105698;1270;23029;-53
2022/06/21 00:36:55;;;;;;;6.70;1.80;;;;;;;12.35;85.73;99861.69;105728;1270;26686;-50
2022/06/21 00:39:28;;;;;;;4.80;1.50;;;;;;;12.32;85.70;99863.20;105745;1270;22594;-50
2022/06/21 00:42:13;;;;;;;6.50;2.20;;;;;;;12.30;85.76;99864.72;105669;1270;22470;-51
2022/06/21 00:44:49;;;;;;;8.50;2.00;;;;;;;12.29;85.72;99863.88;105773;1270;25336;-54
2022/06/21 00:47:26;;;;;;;6.70;1.70;;;;;;;12.28;85.77;99861.49;105659;1270;24405;-50
2022/06/21 00:50:00;;;;;;;9.50;2.40;;;;;;;12.28;85.66;99861.49;105807;1270;22527;-49
2022/06/21 00:52:41;;;;;;;5.80;2.00;;;;;;;12.27;85.68;99856.25;105738;1270;22544;-50
2022/06/21 00:55:19;;;;;;;9.90;2.60;;;;;;;12.24;85.65;99860.50;105609;1271;22555;-50
2022/06/21 00:57:54;;;;;;;7.60;2.50;;;;;;;12.19;85.58;99862.58;105621;1270;24285;-51
2022/06/21 01:00:34;;;;;;;10.10;2.80;;;;;;;12.16;85.52;99862.09;105812;1270;22540;-49
2022/06/21 01:03:13;;;;;;;8.80;2.40;;;;;;;12.13;85.62;99857.28;105747;1271;22584;-52
2022/06/21 01:05:47;;;;;;;10.40;2.90;;;;;;;12.09;85.51;99854.91;105617;1271;22500;-52
2022/06/21 01:08:22;;;;;;;7.80;2.70;;;;;;;12.03;85.48;99855.80;105723;1270;25311;-50
2022/06/21 01:10:58;;;;;;;10.30;3.20;;;;;;;11.98;85.26;99855.60;105740;1270;22580;-49
2022/06/21 01:13:32;;;;;;;10.00;3.40;;;;;;;11.94;85.35;99847.95;105873;1271;22748;-49
2022/06/21 01:16:04;;;;;;;8.10;3.20;;;;;;;11.91;85.36;99845.98;105660;1270;22571;-50
2022/06/21 01:18:37;;;;;;;7.30;2.60;;;;;;;11.87;85.44;99846.87;105714;1270;22557;-50
2022/06/21 01:21:11;;;;;;;7.40;2.40;;;;;;;11.83;85.39;99852.23;105637;1270;22722;-53
2022/06/21 01:23:57;;;;;;;10.10;2.70;;;;;;;11.80;85.35;99848.14;105757;1270;22596;-53
2022/06/21 01:26:41;;;;;;;7.70;2.40;;;;;;;11.76;85.37;99848.66;105879;1270;22548;-50
2022/06/21 01:29:18;;;;;;;8.50;2.40;;;;;;;11.72;85.46;99854.12;105770;1270;24376;-52
2022/06/21 01:31:50;;;;;;;5.70;2.20;;;;;;;11.68;85.40;99854.11;105850;1271;26029;-51
2022/06/21 01:34:24;;;;;;;6.90;2.30;;;;;;;11.66;85.54;99859.02;105836;1270;23218;-52
2022/06/21 01:37:06;;;;;;;7.70;2.40;;;;;;;11.65;85.61;99855.62;105766;1270;24313;-49
2022/06/21 01:39:46;;;;;;;9.80;2.70;;;;;;;11.64;85.77;99855.11;105754;1270;22531;-52
2022/06/21 01:42:22;;;;;;;10.60;3.40;;;;;;;11.65;85.83;99855.45;105827;1270;22532;-53
2022/06/21 01:44:57;;;;;;;15.00;3.50;;;;;;;11.66;85.95;99857.98;105832;1271;22544;-52
2022/06/21 01:47:32;;;;;;;8.60;3.30;;;;;;;11.67;85.98;99856.27;105856;1270;24417;-50
2022/06/21 01:50:08;;;;;;;9.90;3.20;;;;;;;11.67;85.98;99850.02;105775;1270;25291;-50
2022/06/21 01:52:45;;;;;;;13.30;3.90;;;;;;;11.67;85.98;99855.93;105888;1270;26576;-50
2022/06/21 01:55:23;;;;;;;8.50;3.10;;;;;;;11.66;85.96;99858.20;105815;1270;22550;-49
2022/06/21 01:57:59;;;;;;;12.10;4.10;;;;;;;11.66;85.96;99866.85;105247;1270;616388;-49
2022/06/21 02:00:33;;;;;;;12.00;3.70;;;;;;;11.67;85.99;99864.10;105753;1270;22541;-49
2022/06/21 02:03:13;;;;;;;12.20;3.90;;;;;;;11.66;85.90;99869.57;105761;1270;22649;-53
2022/06/21 02:05:51;;;;;;;12.30;3.40;;;;;;;11.64;85.78;99864.41;105858;1270;22529;-51
2022/06/21 02:08:28;;;;;;;7.70;2.70;;;;;;;11.63;85.93;99865.11;105865;1271;22531;-51
2022/06/21 02:11:06;;;;;;;10.50;3.10;;;;;;;11.62;85.98;99868.70;105723;1270;22547;-54
2022/06/21 02:13:42;;;;;;;9.10;2.60;;;;;;;11.62;85.86;99873.14;105905;1270;24141;-51
2022/06/21 02:16:19;;;;;;;9.80;3.30;;;;;;;11.62;85.77;99871.00;105702;1270;25579;-54
2022/06/21 02:18:57;;;;;;;13.10;3.10;;;;;;;11.62;85.82;99869.98;105785;1270;22532;-50
2022/06/21 02:21:34;;;;;;;8.00;2.20;;;;;;;11.61;85.69;99873.98;105727;1270;22543;-52
2022/06/21 02:24:06;;;;;;;9.70;3.20;;;;;;;11.59;85.66;99878.95;105837;1270;22548;-55
2022/06/21 02:26:38;;;;;;;13.20;3.30;;;;;;;11.58;85.77;99875.52;105751;1270;22557;-52
2022/06/21 02:29:14;;;;;;;10.60;2.40;;;;;;;11.56;85.74;99878.48;105776;1270;22565;-53
2022/06/21 02:31:46;;;;;;;7.20;2.00;;;;;;;11.55;85.67;99875.86;105757;1270;25312;-51
2022/06/21 02:34:23;;;;;;;11.50;2.50;;;;;;;11.53;85.82;99870.45;105810;1270;24310;-54
2022/06/21 02:37:00;;;;;;;10.90;2.80;;;;;;;11.51;85.87;99876.34;105732;1270;24282;-52
2022/06/21 02:39:36;;;;;;;10.50;2.20;;;;;;;11.48;85.85;99875.70;105769;1270;24550;-52
2022/06/21 02:42:17;;;;;;;10.30;2.30;;;;;;;11.46;85.82;99871.00;105675;1270;25232;-53
2022/06/21 02:44:52;;;;;;;11.90;2.70;;;;;;;11.45;85.92;99866.67;105722;1270;25350;-52
2022/06/21 02:47:28;;;;;;;10.10;2.90;;;;;;;11.44;86.11;99867.23;105815;1270;22629;-50
2022/06/21 02:50:03;;;;;;;9.90;2.70;;;;;;;11.42;86.24;99866.91;105748;1270;25314;-49
2022/06/21 02:52:38;;;;;;;8.20;3.30;;;;;;;11.41;86.11;99864.50;105927;1270;25252;-54
2022/06/21 02:55:36;;;;;;;7.60;2.50;;;;;;;11.40;86.19;99870.64;105699;1270;22547;-49
2022/06/21 02:58:14;;;;;;;9.30;3.20;;;;;;;11.37;86.12;99863.86;105906;1270;25345;-49
2022/06/21 03:00:47;;;;;;;9.50;2.60;;;;;;;11.36;86.03;99869.33;105835;1270;25528;-51
2022/06/21 03:03:23;;;;;;;10.70;3.10;;;;;;;11.35;86.10;99863.03;105877;1270;25230;-53
2022/06/21 03:05:59;;;;;;;7.90;2.80;;;;;;;11.34;86.09;99864.38;105868;1270;22577;-49
2022/06/21 03:08:33;;;;;;;9.90;3.30;;;;;;;11.32;86.21;99864.61;105928;1270;22681;-52
2022/06/21 03:11:06;;;;;;;10.10;2.90;;;;;;;11.32;86.19;99864.36;105921;1270;25689;-50
2022/06/21 03:13:39;;;;;;;9.90;2.20;;;;;;;11.31;86.26;99870.40;106326;1264;24230;-62
2022/06/21 03:16:18;;;;;;;8.50;1.80;;;;;;;11.30;86.16;99864.44;105746;1272;22532;-62
2022/06/21 03:18:51;;;;;;;11.80;1.90;;;;;;;11.30;86.17;99863.32;105858;1271;23090;-62
2022/06/21 03:21:33;;;;;;;7.70;1.80;;;;;;;11.31;86.12;99862.08;105775;1271;22561;-61
2022/06/21 03:24:08;;;;;;;7.10;2.00;;;;;;;11.32;86.27;99862.73;105843;1271;22608;-62
2022/06/21 03:26:42;;;;;;;9.80;2.20;;;;;;;11.32;86.27;99869.91;105769;1271;22541;-62
2022/06/21 03:29:20;;;;;;;7.60;1.80;;;;;;;11.33;86.31;99874.89;105813;1271;23227;-61
2022/06/21 03:31:53;;;;;;;9.20;1.70;;;;;;;11.33;86.21;99875.36;109749;1270;23061;-61
2022/06/21 03:34:28;;;;;;;5.90;1.50;;;;;;;11.35;86.27;99878.21;109494;1271;22619;-62
2022/06/21 03:37:01;;;;;;;6.50;2.00;;;;;;;11.36;86.09;99880.27;105781;1271;22541;-63
2022/06/21 03:42:29;;;;;;;8.10;1.50;;;;;;;11.44;86.05;99871.14;105675;1270;25852;-62
2022/06/21 03:45:05;;;;;;;7.60;1.50;;;;;;;11.47;86.03;99875.79;105956;1270;22646;-62
2022/06/21 03:47:41;;;;;;;8.20;1.90;;;;;;;11.50;86.17;99876.89;105804;1273;22534;-62
2022/06/21 03:50:19;;;;;;;8.40;1.70;;;;;;;11.54;86.12;99877.02;105735;1271;25269;-61
2022/06/21 03:52:56;;;;;;;9.30;1.40;;;;;;;11.58;86.07;99882.20;105590;1271;24420;-60
2022/06/21 03:55:43;;;;;;;6.70;1.80;;;;;;;11.61;86.00;99882.12;105759;1271;25251;-61
2022/06/21 03:58:22;;;;;;;7.40;1.60;;;;;;;11.63;85.84;99880.21;105847;1271;26487;-61
2022/06/21 04:01:06;;;;;;;11.20;1.70;;;;;;;11.64;85.78;99878.23;105875;1270;22987;-60
2022/06/21 04:03:42;;;;;;;14.20;1.90;;;;;;;11.66;85.64;99882.44;105840;1271;25384;-61
2022/06/21 04:06:19;;;;;;;8.50;1.70;;;;;;;11.68;85.82;99888.71;105991;1271;24312;-62
2022/06/21 04:09:00;;;;;;;9.40;1.70;;;;;;;11.71;85.41;99888.84;105735;1271;22531;-60
2022/06/21 04:11:38;;;;;;;5.70;1.50;;;;;;;11.73;85.31;99888.66;105620;1270;22558;-61
2022/06/21 04:14:19;;;;;;;7.10;1.50;;;;;;;11.76;85.32;99894.13;105615;1271;22550;-60
2022/06/21 04:17:01;;;;;;;6.90;1.40;;;;;;;11.80;85.56;99896.04;106025;1270;22634;-62
2022/06/21 04:19:39;;;;;;;8.60;1.60;;;;;;;11.84;85.05;99897.30;105744;1271;22525;-61
2022/06/21 04:22:17;;;;;;;6.60;1.60;;;;;;;11.87;84.89;99902.21;105602;1271;24230;-63
2022/06/21 04:24:56;;;;;;;9.20;2.10;;;;;;;11.89;84.50;99905.48;105678;1271;25557;-61
2022/06/21 04:27:33;;;;;;;9.00;1.50;;;;;;;11.93;84.46;99908.15;105818;1271;22544;-61
2022/06/21 04:30:15;;;;;;;4.40;1.30;;;;;;;11.96;84.46;99917.60;105785;1271;22611;-62
2022/06/21 04:32:50;;;;;;;6.50;1.40;;;;;;;12.00;84.15;99913.35;105862;1271;22542;-61
2022/06/21 04:35:28;;;;;;;9.30;1.60;;;;;;;12.04;84.02;99919.14;105659;1271;22595;-62
2022/06/21 04:38:04;;;;;;;10.60;1.80;;;;;;;12.09;83.82;99914.13;105927;1271;22562;-60
2022/06/21 04:40:40;;;;;;;9.00;1.40;;;;;;;12.14;83.52;99914.89;105993;1271;22647;-60
2022/06/21 04:43:15;;;;;;;4.60;1.00;;;;;;;12.18;83.39;99916.80;106329;1271;25260;-62
2022/06/21 04:45:51;;;;;;;10.10;1.60;;;;;;;12.20;83.02;99912.64;105924;1271;22540;-62
2022/06/21 04:48:32;;;;;;;5.00;1.30;;;;;;;12.24;83.20;99919.48;105801;1273;22551;-61
2022/06/21 04:51:13;;;;;;;3.70;1.20;;;;;;;12.29;83.12;99917.68;109761;1271;22233;-61
2022/06/21 04:53:47;;;;;;;;;;;;;;;12.32;83.24;99919.80;109759;1271;22384;-61
2022/06/21 04:56:29;;;;;;;5.10;1.20;;;;;;;12.35;82.84;99921.23;109727;1271;22399;-62
2022/06/21 04:59:04;;;;;;;6.90;1.10;;;;;;;12.40;82.35;99933.02;109598;1273;22389;-62
2022/06/21 05:01:38;;;;;;;4.20;1.10;;;;;;;12.44;82.23;99934.17;109071;1271;22544;-62
2022/06/21 05:04:17;;;;;;;7.00;1.40;;;;;;;12.49;82.08;99939.39;106147;1270;26612;-61
2022/06/21 05:06:50;;;;;;;6.90;1.20;;;;;;;12.57;82.36;99935.58;105917;1271;22544;-61
2022/06/21 05:09:27;;;;;;;5.10;1.30;;;;;;;12.63;82.34;99933.94;105833;1273;23260;-59
2022/06/21 05:12:03;;;;;;;4.90;1.40;;;;;;;12.68;81.88;99930.25;105904;1271;24290;-60
2022/06/21 05:14:40;;;;;;;7.40;1.20;;;;;;;12.71;81.46;99924.05;105815;1273;22537;-59
2022/06/21 05:17:17;;;;;;;4.10;1.00;;;;;;;12.73;81.56;99919.42;105651;1273;22534;-61
2022/06/21 05:19:54;;;;;;;10.50;1.30;;;;;;;12.78;81.36;99919.55;105817;1273;25386;-59
2022/06/21 05:22:30;;;;;;;9.50;1.20;;;;;;;12.82;81.35;99912.90;105786;1273;22532;-61
2022/06/21 05:25:16;;;;;;;7.80;1.30;;;;;;;12.87;81.26;99912.63;105929;1270;24945;-62
2022/06/21 05:27:58;;;;;;;6.30;1.30;;;;;;;12.96;80.98;99914.54;105711;1271;25614;-62
2022/06/21 05:30:39;;;;;;;7.00;1.00;;;;;;;12.99;80.29;99911.91;105926;1271;24170;-62
2022/06/21 05:33:18;;;;;;;5.00;0.90;;;;;;;13.02;79.93;99905.04;105897;1273;22576;-60
2022/06/21 05:35:53;;;;;;;5.40;1.20;;;;;;;13.10;80.67;99905.46;105803;1271;25366;-61
2022/06/21 05:38:30;;;;;;;7.20;1.30;;;;;;;13.17;79.75;99912.80;105847;1271;22556;-62
2022/06/21 05:41:06;;;;;;;7.80;1.30;;;;;;;13.20;79.97;99914.65;105632;1271;24320;-61
2022/06/21 05:43:39;;;;;;;8.60;1.30;;;;;;;13.28;80.02;99916.56;105953;1271;22561;-60
2022/06/21 05:46:17;;;;;;;9.10;1.20;;;;;;;13.43;80.09;99922.79;105927;1271;22557;-62
2022/06/21 05:48:49;;;;;;;6.60;1.10;;;;;;;13.51;79.45;99927.42;105913;1271;22722;-60
2022/06/21 05:51:25;;;;;;;4.50;1.00;;;;;;;13.57;79.12;99927.19;105945;1271;22528;-63
2022/06/21 05:54:00;;;;;;;4.00;0.90;;;;;;;13.59;78.30;99926.88;105816;1271;22534;-60
2022/06/21 05:56:34;;;;;;;5.80;1.30;;;;;;;13.57;78.22;99929.16;105984;1273;25333;-63
2022/06/21 05:59:09;;;;;;;5.40;1.00;;;;;;;13.57;78.18;99939.28;105814;1271;22912;-61
2022/06/21 06:01:46;;;;;;;5.00;0.90;;;;;;;13.61;77.47;99945.77;105748;1271;22555;-61
2022/06/21 06:04:24;;;;;;;4.90;1.00;;;;;;;13.61;77.11;99952.08;105981;1271;25609;-60
2022/06/21 06:06:58;;;;;;;5.70;1.30;;;;;;;13.61;76.96;99947.53;105783;1273;22621;-62
2022/06/21 06:09:34;;;;;;;7.00;0.80;;;;;;;13.61;76.99;99943.82;105825;1271;24307;-62
2022/06/21 06:12:09;;;;;;;4.80;1.30;;;;;;;13.71;77.15;99942.11;106082;1273;25539;-61
2022/06/21 06:14:45;;;;;;;4.60;0.80;;;;;;;13.85;77.16;99940.29;105901;1270;25279;-61
2022/06/21 06:17:26;;;;;;;4.40;1.00;;;;;;;13.98;76.21;99942.84;105829;1271;24230;-62
2022/06/21 06:20:04;;;;;;;9.00;0.90;;;;;;;14.13;75.86;99946.36;105785;1271;24230;-60
2022/06/21 06:22:42;;;;;;;6.40;0.90;;;;;;;14.25;76.32;99942.75;106326;1271;25392;-60
2022/06/21 06:25:23;;;;;;;8.20;0.90;;;;;;;14.34;75.96;99948.13;108088;1271;25292;-62
2022/06/21 06:27:57;;;;;;;;;;;;;;;14.37;75.40;99942.77;106016;1271;24323;-60
2022/06/21 06:30:34;;;;;;;7.70;1.10;;;;;;;14.40;75.19;99941.48;105822;1271;25406;-62
2022/06/21 06:33:22;;;;;;;4.40;0.80;;;;;;;14.45;74.42;99941.64;105767;1271;22733;-61
2022/06/21 06:35:58;;;;;;;7.60;0.90;;;;;;;14.48;74.34;99950.87;105801;1273;25638;-60
2022/06/21 06:38:32;;;;;;;5.70;0.90;;;;;;;14.49;73.70;99951.32;106262;1271;22544;-61
2022/06/21 06:41:11;;;;;;;5.70;1.00;;;;;;;14.50;73.37;99953.88;106022;1271;25208;-61
2022/06/21 06:43:48;;;;;;;5.20;1.10;;;;;;;14.55;73.90;99949.32;106015;1273;25266;-60
2022/06/21 06:46:28;;;;;;;4.60;0.80;;;;;;;14.68;73.77;99952.91;106021;1271;25377;-60
2022/06/21 06:49:14;;;;;;;6.30;0.80;;;;;;;14.77;72.90;99952.14;105934;1273;24242;-60
2022/06/21 06:51:53;;;;;;;3.30;0.80;;;;;;;14.81;72.54;99950.84;106045;1273;24326;-61
2022/06/21 06:54:33;;;;;;;3.20;0.70;;;;;;;14.85;71.93;99953.59;106038;1271;25567;-62
2022/06/21 06:57:21;;;;;;;6.40;1.00;;;;;;;14.87;71.61;99962.63;106103;1271;22551;-61
2022/06/21 06:59:56;;;;;;;9.00;0.60;;;;;;;14.87;71.08;99960.54;106188;1271;26447;-60
2022/06/21 07:02:34;;;;;;;2.10;0.60;;;;;;;14.82;69.84;99969.24;106052;1271;22573;-62
2022/06/21 07:05:19;;;;;;;6.30;0.70;;;;;;;14.79;70.24;99966.73;105674;1271;22563;-61
2022/06/21 07:07:54;;;;;;;3.60;0.50;;;;;;;14.77;70.41;99970.42;105780;1273;22565;-60
2022/06/21 07:10:29;;;;;;;4.90;0.70;;;;;;;14.75;70.38;99969.61;105947;1271;22528;-63
2022/06/21 07:13:01;;;;;;;3.60;0.80;;;;;;;14.76;70.82;99975.59;105841;1271;25500;-61
2022/06/21 07:15:39;;;;;;;5.00;1.00;;;;;;;14.76;70.53;99975.54;105802;1273;25395;-61
2022/06/21 07:18:16;;;;;;;4.90;0.80;;;;;;;14.78;70.03;99983.75;105819;1271;24231;-60
2022/06/21 07:20:49;;;;;;;3.60;0.60;;;;;;;14.79;70.09;99985.86;105863;1271;26586;-60
2022/06/21 07:23:22;;;;;;;3.50;0.90;;;;;;;14.82;69.92;99984.00;105783;1271;24432;-62
2022/06/21 07:26:01;;;;;;;2.60;0.80;;;;;;;14.87;69.67;99988.55;105911;1271;22622;-62
2022/06/21 07:28:40;;;;;;;5.30;0.80;;;;;;;14.90;69.53;99988.47;105904;1273;25333;-62
2022/06/21 07:31:18;;;;;;;1.90;0.70;;;;;;;14.87;69.37;99994.88;105824;1271;22554;-61
2022/06/21 07:33:58;;;;;;;5.00;0.70;;;;;;;14.82;68.92;99990.70;105664;1271;22554;-62
2022/06/21 07:36:32;;;;;;;4.50;0.70;;;;;;;14.78;68.69;100004.15;105844;1271;25445;-62
2022/06/21 07:39:09;;;;;;;4.80;0.80;;;;;;;14.75;68.85;99998.79;105916;1271;22626;-60
2022/06/21 07:41:44;;;;;;;3.90;0.80;;;;;;;14.75;68.91;100003.80;105683;1271;22541;-60
2022/06/21 07:44:22;;;;;;;5.80;1.00;;;;;;;14.80;69.21;100002.71;105750;1271;24305;-61
2022/06/21 07:46:58;;;;;;;4.30;0.70;;;;;;;14.84;68.76;100005.20;105806;1273;22541;-60
2022/06/21 07:49:35;;;;;;;5.70;0.70;;;;;;;14.83;68.42;100008.02;105976;1271;22551;-61
2022/06/21 07:52:12;;;;;;;6.30;0.80;;;;;;;14.83;68.34;100001.27;105700;1271;25414;-60
2022/06/21 07:54:48;;;;;;;6.00;0.70;;;;;;;14.86;68.79;100004.08;105839;1273;25417;-59
2022/06/21 07:57:30;;;;;;;5.30;0.90;;;;;;;14.96;69.08;100001.97;105907;1271;22554;-61
2022/06/21 08:00:07;;;;;;;4.00;0.90;;;;;;;15.16;69.25;99997.85;105716;1271;23065;-60
2022/06/21 08:08:32;;;;;;;5.50;0.90;;;;;;;15.63;65.91;100006.23;105385;1276;22567;-62
2022/06/21 08:11:08;;;;;;;4.50;0.70;;;;;;;15.67;66.27;99994.29;105405;1276;22765;-61
2022/06/21 08:13:41;;;;;;;4.30;1.10;;;;;;;15.72;65.35;99998.19;105382;1276;23946;-60
2022/06/21 08:16:16;;;;;;;4.40;0.60;;;;;;;15.80;66.33;99990.88;105600;1276;22532;-60
2022/06/21 08:18:52;;;;;;;4.40;0.80;;;;;;;15.90;65.12;99996.90;105597;1276;24241;-61
2022/06/21 08:21:31;;;;;;;5.50;0.60;;;;;;;15.97;64.44;99997.06;105491;1276;22555;-61
2022/06/21 08:24:09;;;;;;;6.50;0.80;;;;;;;16.04;63.80;99997.48;105457;1276;22516;-60
2022/06/21 08:26:45;;;;;;;5.80;0.60;;;;;;;16.11;64.03;100004.09;105482;1276;25427;-60
2022/06/21 08:29:22;;;;;;;4.50;0.90;;;;;;;16.22;64.35;100003.90;105690;1276;22547;-62
2022/06/21 08:32:01;;;;;;;14.50;0.80;;;;;;;16.32;62.14;100016.13;105458;1276;22577;-61
2022/06/21 08:34:41;;;;;;;5.20;0.50;;;;;;;16.25;62.17;100016.52;105706;1276;25360;-61
2022/06/21 08:37:17;;;;;;;3.70;0.60;;;;;;;16.30;62.10;100000.67;105747;1276;25569;-62
2022/06/21 08:39:53;;;;;;;6.10;0.70;;;;;;;16.40;61.96;100003.91;105372;1276;24386;-61
2022/06/21 08:42:47;;;;;;;3.60;0.60;;;;;;;16.45;61.45;100011.14;105485;1276;22549;-61
2022/06/21 08:45:43;;;;;;;3.20;0.30;;;;;;;16.48;61.34;100010.41;105704;1271;22539;-62
2022/06/21 08:48:45;;;;;;;6.70;0.80;;;;;;;16.50;61.33;100005.59;105708;1273;24438;-60
2022/06/21 08:51:52;;;;;;;2.80;0.80;;;;;;;16.60;60.02;100000.39;105835;1271;24241;-60
2022/06/21 08:54:36;;;;;;;3.50;0.50;;;;;;;16.53;58.90;100010.48;105673;1271;22558;-59
2022/06/21 08:57:18;;;;;;;6.70;0.60;;;;;;;16.48;59.86;100008.66;105696;1271;22531;-59
2022/06/21 09:00:04;;;;;;;4.20;0.40;;;;;;;16.56;59.67;100006.47;105704;1273;25427;-60
2022/06/21 09:02:49;;;;;;;6.40;0.70;;;;;;;16.57;58.34;100007.49;105973;1271;25437;-59
2022/06/21 09:05:38;;;;;;;3.20;0.50;;;;;;;16.50;58.46;100007.90;105702;1271;24237;-59
2022/06/21 09:08:24;;;;;;;6.60;0.40;;;;;;;16.61;58.85;100006.77;105652;1271;22558;-58
2022/06/21 09:11:09;;;;;;;5.40;0.50;;;;;;;16.74;58.96;100011.83;105697;1271;22732;-61
2022/06/21 09:13:42;;;;;;;3.90;0.60;;;;;;;16.90;58.87;100011.00;106035;1271;24224;-60
2022/06/21 09:16:20;;;;;;;5.90;0.50;;;;;;;17.01;57.58;100030.18;105795;1273;25723;-52
2022/06/21 09:19:03;;;;;;;1.70;0.40;;;;;;;17.00;57.18;100016.70;105736;1273;25237;-50
2022/06/21 09:21:53;;;;;;;5.50;0.40;;;;;;;16.97;56.44;100017.65;105683;1273;25247;-50
2022/06/21 09:24:39;;;;;;;2.50;0.40;;;;;;;16.85;56.43;100013.52;105574;1273;25242;-49
2022/06/21 09:27:19;;;;;;;3.10;0.50;;;;;;;16.78;56.89;100019.36;105645;1273;22697;-52
2022/06/21 09:30:11;;;;;;;3.20;0.40;;;;;;;16.83;56.67;100015.89;105584;1274;26431;-50
2022/06/21 09:32:55;;;;;;;8.10;0.70;;;;;;;16.98;55.99;100017.52;105718;1273;25423;-51
2022/06/21 09:35:38;;;;;;;2.60;0.50;;;;;;;17.09;55.65;100011.05;105916;1273;22753;-49
2022/06/21 09:38:21;;;;;;;4.80;0.40;;;;;;;17.18;55.50;100011.84;105634;1273;22622;-51
2022/06/21 09:41:01;;;;;;;7.10;0.50;;;;;;;17.34;55.36;100017.29;105662;1273;22574;-52
2022/06/21 09:43:44;;;;;;;6.70;0.40;;;;;;;17.50;54.96;100018.13;105698;1274;22534;-50
2022/06/21 09:46:27;;;;;;;4.30;0.40;;;;;;;17.45;54.80;100019.05;105754;1273;22550;-49
2022/06/21 09:49:05;;;;;;;5.60;0.50;;;;;;;17.39;55.72;100010.81;105768;1273;25472;-52
2022/06/21 09:51:46;;;;;;;5.30;0.50;;;;;;;17.51;55.75;100015.45;105683;1273;23457;-49
2022/06/21 09:54:30;;;;;;;6.60;0.60;;;;;;;17.59;54.95;100013.04;105682;1273;22538;-50
2022/06/21 09:57:12;;;;;;;6.10;0.50;;;;;;;17.61;54.99;100023.59;105661;1273;25238;-52
2022/06/21 09:59:54;;;;;;;6.30;0.60;;;;;;;17.60;54.54;100015.95;105962;1273;22554;-50
2022/06/21 10:02:38;;;;;;;7.10;0.70;;;;;;;17.57;54.63;100024.30;105647;1273;25478;-49
2022/06/21 10:05:19;;;;;;;2.40;0.40;;;;;;;17.51;54.21;100014.33;105677;1273;22541;-51
2022/06/21 10:08:03;;;;;;;5.30;0.30;;;;;;;17.47;54.49;100018.77;105631;1273;25515;-50
2022/06/21 10:10:52;;;;;;;2.00;0.40;;;;;;;17.41;53.62;100026.08;105687;1273;22548;-50
2022/06/21 10:13:39;;;;;;;3.50;0.50;;;;;;;17.29;53.93;100023.30;105689;1273;24285;-50
2022/06/21 10:16:27;;;;;;;8.40;0.60;;;;;;;17.24;54.36;100012.98;105820;1273;25398;-50
2022/06/21 10:19:16;;;;;;;4.60;0.40;;;;;;;17.34;54.35;100009.80;105844;1273;23965;-52
2022/06/21 10:22:10;;;;;;;4.20;0.50;;;;;;;17.51;54.33;100016.31;105809;1273;22474;-51
2022/06/21 10:25:09;;;;;;;4.00;0.40;;;;;;;17.73;52.92;100023.29;105776;1273;22537;-53
2022/06/21 10:28:10;;;;;;;5.90;0.50;;;;;;;17.80;51.50;100013.63;106223;1273;25300;-53
2022/06/21 10:31:00;;;;;;;3.00;0.30;;;;;;;17.86;52.09;100016.42;105271;1277;22658;-51
2022/06/21 10:33:38;;;;;;;;;;;;;;;17.89;52.52;100023.11;105361;1277;22512;-49
2022/06/21 10:36:32;;;;;;;4.70;0.60;;;;;;;17.84;51.89;100026.11;105461;1277;25299;-51
2022/06/21 10:39:19;;;;;;;6.00;0.60;;;;;;;17.76;51.88;100018.72;105492;1277;22795;-51
2022/06/21 10:45:11;;;;;;;4.60;0.40;;;;;;;18.10;52.02;100013.97;105322;1277;22661;-54
2022/06/21 10:48:04;;;;;;;2.70;0.30;;;;;;;18.25;51.75;100015.17;105430;1277;22526;-52
2022/06/21 10:50:48;;;;;;;7.40;0.70;;;;;;;18.33;51.22;100009.81;105398;1277;25360;-50
2022/06/21 10:54:01;;;;;;;4.30;0.40;;;;;;;18.32;50.32;100015.62;105318;1278;22712;-49
2022/06/21 11:03:06;;;;;;;0.70;0.10;;;;;;;18.12;49.59;100030.89;105347;1277;24266;-52
2022/06/21 11:05:45;;;;;;;2.90;0.30;;;;;;;18.05;50.08;100034.59;105272;1277;22593;-50
2022/06/21 11:08:29;;;;;;;5.70;0.60;;;;;;;17.99;50.14;100038.58;105475;1273;25344;-51
2022/06/21 11:11:07;;;;;;;3.30;0.40;;;;;;;17.91;50.21;100042.54;105706;1273;22699;-50
2022/06/21 11:13:45;;;;;;;3.20;0.30;;;;;;;17.86;50.86;100042.67;105655;1273;25251;-51
2022/06/21 11:16:25;;;;;;;2.10;0.60;;;;;;;17.84;50.69;100048.39;105712;1273;25353;-53
2022/06/21 11:19:06;;;;;;;2.60;0.40;;;;;;;17.86;50.53;100047.89;105660;1273;22545;-50
2022/06/21 11:21:50;;;;;;;3.10;0.40;;;;;;;17.93;51.16;100039.23;105592;1272;22551;-51
2022/06/21 11:24:36;;;;;;;2.50;0.50;;;;;;;18.05;51.35;100035.30;105700;1273;22757;-54
2022/06/21 11:27:18;;;;;;;4.50;0.40;;;;;;;18.23;51.10;100032.89;105681;1273;26518;-52
2022/06/21 11:29:56;;;;;;;9.20;0.50;;;;;;;18.37;49.58;100045.09;105768;1273;25396;-51
2022/06/21 11:32:35;;;;;;;3.30;0.40;;;;;;;18.38;49.59;100036.65;105931;1272;24202;-49
2022/06/21 11:35:20;;;;;;;7.50;0.50;;;;;;;18.35;49.29;100033.30;105536;1273;22662;-49
2022/06/21 11:38:06;;;;;;;2.40;0.40;;;;;;;18.35;49.31;100029.45;105521;1273;25522;-49
2022/06/21 11:40:51;;;;;;;2.50;0.40;;;;;;;18.42;49.12;100036.48;105691;1273;23073;-52
2022/06/21 11:43:51;;;;;;;2.30;0.50;;;;;;;18.45;49.43;100028.38;105716;1273;22548;-49
2022/06/21 11:46:35;;;;;;;3.80;0.50;;;;;;;18.52;49.27;100027.00;106114;1273;24314;-50
2022/06/21 11:49:38;;;;;;;2.20;0.40;;;;;;;18.58;49.61;100030.60;105916;1273;22609;-51
2022/06/21 11:52:46;;;;;;;2.50;0.30;;;;;;;18.74;49.15;100033.70;105500;1277;22554;-51
2022/06/21 11:55:27;;;;;;;1.90;0.40;;;;;;;18.84;48.75;100039.03;105269;1281;24269;-52
2022/06/21 11:58:09;;;;;;;6.80;0.40;;;;;;;18.82;47.97;100032.80;105082;1281;22559;-51
2022/06/21 12:00:50;;;;;;;3.50;0.40;;;;;;;18.82;48.16;100036.96;105235;1281;22751;-53
2022/06/21 12:03:44;;;;;;;5.90;0.40;;;;;;;18.88;48.33;100036.19;105179;1281;22637;-53
2022/06/21 12:06:29;;;;;;;4.90;0.50;;;;;;;18.93;48.73;100035.17;105062;1281;22803;-49
2022/06/21 12:09:07;;;;;;;2.90;0.40;;;;;;;19.11;48.21;100043.94;105122;1281;24732;-49
2022/06/21 12:11:51;;;;;;;3.00;0.40;;;;;;;19.26;47.39;100042.06;104994;1282;25272;-53
2022/06/21 12:14:36;;;;;;;5.50;0.50;;;;;;;19.32;47.67;100045.02;105257;1281;22579;-50
2022/06/21 12:17:15;;;;;;;1.90;0.30;;;;;;;19.41;47.45;100044.05;105132;1281;25243;-53
2022/06/21 12:19:52;;;;;;;3.60;0.40;;;;;;;19.46;46.98;100040.55;105275;1281;22592;-53
2022/06/21 12:22:37;;;;;;;2.60;0.50;;;;;;;19.50;47.15;100030.23;105336;1281;22578;-56
2022/06/21 12:25:14;;;;;;;5.40;0.40;;;;;;;19.52;46.72;100038.79;105142;1281;24391;-49
2022/06/21 12:27:47;;;;;;;2.90;0.50;;;;;;;19.40;47.01;100044.33;105182;1278;25249;-52
2022/06/21 12:30:23;;;;;;;8.20;0.50;;;;;;;19.34;47.34;100038.17;105562;1277;24524;-49
2022/06/21 12:33:01;;;;;;;3.10;0.60;;;;;;;19.33;47.09;100039.27;105695;1273;24425;-52
2022/06/21 12:35:46;;;;;;;1.50;0.40;;;;;;;19.26;47.07;100041.30;105704;1273;23938;-52